sensor_id;sensor_type;location;lat;lon;timestamp;P1;durP1;ratioP1;P2;durP2;ratioP2
14933;SDS011;7560;51.364;12.384;2024-03-07T00:01:05;44.63;;;19.58;;
14933;SDS011;7560;51.364;12.384;2024-03-07T00:06:08;43.72;;;18.80;;
14933;SDS011;7560;51.364;12.384;2024-03-07T00:11:10;46.38;;;19.90;;
14933;SDS011;7560;51.364;12.384;2024-03-07T00:16:12;44.75;;;19.92;;
14933;SDS011;7560;51.364;12.384;2024-03-07T00:21:14;43.53;;;20.45;;
14933;SDS011;7560;51.364;12.384;2024-03-07T00:26:16;50.40;;;20.85;;
14933;SDS011;7560;51.364;12.384;2024-03-07T00:31:17;50.78;;;21.83;;
14933;SDS011;7560;51.364;12.384;2024-03-07T00:36:19;53.95;;;22.60;;
14933;SDS011;7560;51.364;12.384;2024-03-07T00:41:22;52.60;;;22.45;;
14933;SDS011;7560;51.364;12.384;2024-03-07T00:46:24;46.38;;;21.75;;
14933;SDS011;7560;51.364;12.384;2024-03-07T00:51:26;52.00;;;22.90;;
14933;SDS011;7560;51.364;12.384;2024-03-07T00:56:27;57.67;;;24.08;;
14933;SDS011;7560;51.364;12.384;2024-03-07T01:01:30;61.22;;;23.52;;
14933;SDS011;7560;51.364;12.384;2024-03-07T01:06:33;67.25;;;25.95;;
14933;SDS011;7560;51.364;12.384;2024-03-07T01:11:35;60.53;;;24.98;;
14933;SDS011;7560;51.364;12.384;2024-03-07T01:16:37;61.22;;;25.67;;
14933;SDS011;7560;51.364;12.384;2024-03-07T01:21:39;67.60;;;26.60;;
14933;SDS011;7560;51.364;12.384;2024-03-07T01:26:40;66.18;;;26.58;;
14933;SDS011;7560;51.364;12.384;2024-03-07T01:31:42;62.83;;;25.23;;
14933;SDS011;7560;51.364;12.384;2024-03-07T01:36:44;66.10;;;26.20;;
14933;SDS011;7560;51.364;12.384;2024-03-07T01:41:46;68.88;;;27.75;;
14933;SDS011;7560;51.364;12.384;2024-03-07T01:46:49;63.30;;;26.50;;
14933;SDS011;7560;51.364;12.384;2024-03-07T01:51:52;60.75;;;25.40;;
14933;SDS011;7560;51.364;12.384;2024-03-07T01:56:54;66.47;;;26.42;;
14933;SDS011;7560;51.364;12.384;2024-03-07T02:01:57;66.32;;;27.05;;
14933;SDS011;7560;51.364;12.384;2024-03-07T02:06:58;67.50;;;26.85;;
14933;SDS011;7560;51.364;12.384;2024-03-07T02:12:00;63.90;;;26.40;;
14933;SDS011;7560;51.364;12.384;2024-03-07T02:17:02;66.57;;;25.73;;
14933;SDS011;7560;51.364;12.384;2024-03-07T02:22:05;63.10;;;25.52;;
14933;SDS011;7560;51.364;12.384;2024-03-07T02:27:07;62.50;;;26.45;;
14933;SDS011;7560;51.364;12.384;2024-03-07T02:32:09;59.78;;;25.92;;
14933;SDS011;7560;51.364;12.384;2024-03-07T02:37:13;53.85;;;24.48;;
14933;SDS011;7560;51.364;12.384;2024-03-07T02:42:15;56.42;;;24.45;;
14933;SDS011;7560;51.364;12.384;2024-03-07T02:47:16;58.00;;;24.92;;
14933;SDS011;7560;51.364;12.384;2024-03-07T02:52:18;61.42;;;24.00;;
14933;SDS011;7560;51.364;12.384;2024-03-07T02:57:20;64.68;;;25.70;;
14933;SDS011;7560;51.364;12.384;2024-03-07T03:02:22;58.65;;;24.95;;
14933;SDS011;7560;51.364;12.384;2024-03-07T03:07:24;62.97;;;25.25;;
14933;SDS011;7560;51.364;12.384;2024-03-07T03:12:26;69.43;;;27.02;;
14933;SDS011;7560;51.364;12.384;2024-03-07T03:17:27;65.80;;;27.50;;
14933;SDS011;7560;51.364;12.384;2024-03-07T03:22:29;75.72;;;28.02;;
14933;SDS011;7560;51.364;12.384;2024-03-07T03:27:31;77.60;;;28.38;;
14933;SDS011;7560;51.364;12.384;2024-03-07T03:32:33;71.13;;;26.92;;
14933;SDS011;7560;51.364;12.384;2024-03-07T03:37:35;74.20;;;27.35;;
14933;SDS011;7560;51.364;12.384;2024-03-07T03:42:37;66.28;;;26.80;;
14933;SDS011;7560;51.364;12.384;2024-03-07T03:47:39;72.57;;;28.30;;
14933;SDS011;7560;51.364;12.384;2024-03-07T03:52:42;66.60;;;26.35;;
14933;SDS011;7560;51.364;12.384;2024-03-07T03:57:44;61.10;;;25.38;;
14933;SDS011;7560;51.364;12.384;2024-03-07T04:02:50;70.88;;;27.20;;
14933;SDS011;7560;51.364;12.384;2024-03-07T04:07:53;56.50;;;26.10;;
14933;SDS011;7560;51.364;12.384;2024-03-07T04:12:56;59.20;;;25.13;;
14933;SDS011;7560;51.364;12.384;2024-03-07T04:17:58;67.00;;;27.52;;
14933;SDS011;7560;51.364;12.384;2024-03-07T04:23:00;67.10;;;25.98;;
14933;SDS011;7560;51.364;12.384;2024-03-07T04:28:03;60.58;;;24.45;;
14933;SDS011;7560;51.364;12.384;2024-03-07T04:33:06;60.58;;;24.95;;
14933;SDS011;7560;51.364;12.384;2024-03-07T04:38:08;58.03;;;25.67;;
14933;SDS011;7560;51.364;12.384;2024-03-07T04:43:12;55.20;;;24.52;;
14933;SDS011;7560;51.364;12.384;2024-03-07T04:48:14;58.63;;;25.40;;
14933;SDS011;7560;51.364;12.384;2024-03-07T04:53:16;54.78;;;24.27;;
14933;SDS011;7560;51.364;12.384;2024-03-07T04:58:18;57.30;;;24.20;;
14933;SDS011;7560;51.364;12.384;2024-03-07T05:03:20;57.95;;;25.13;;
14933;SDS011;7560;51.364;12.384;2024-03-07T05:08:23;52.55;;;24.33;;
14933;SDS011;7560;51.364;12.384;2024-03-07T05:13:25;55.42;;;25.30;;
14933;SDS011;7560;51.364;12.384;2024-03-07T05:18:26;49.80;;;24.95;;
14933;SDS011;7560;51.364;12.384;2024-03-07T05:23:28;50.33;;;24.67;;
14933;SDS011;7560;51.364;12.384;2024-03-07T05:28:32;54.30;;;25.80;;
14933;SDS011;7560;51.364;12.384;2024-03-07T05:33:37;49.72;;;26.98;;
14933;SDS011;7560;51.364;12.384;2024-03-07T05:38:43;47.72;;;24.42;;
14933;SDS011;7560;51.364;12.384;2024-03-07T05:43:45;46.80;;;23.52;;
14933;SDS011;7560;51.364;12.384;2024-03-07T05:48:47;46.17;;;23.77;;
14933;SDS011;7560;51.364;12.384;2024-03-07T05:53:53;45.72;;;23.67;;
14933;SDS011;7560;51.364;12.384;2024-03-07T05:58:55;47.25;;;24.13;;
14933;SDS011;7560;51.364;12.384;2024-03-07T06:03:56;47.55;;;23.77;;
14933;SDS011;7560;51.364;12.384;2024-03-07T06:09:00;45.13;;;23.40;;
14933;SDS011;7560;51.364;12.384;2024-03-07T06:14:05;51.10;;;24.67;;
14933;SDS011;7560;51.364;12.384;2024-03-07T06:19:08;48.88;;;24.00;;
14933;SDS011;7560;51.364;12.384;2024-03-07T06:24:12;48.15;;;24.15;;
14933;SDS011;7560;51.364;12.384;2024-03-07T06:29:17;49.00;;;24.52;;
14933;SDS011;7560;51.364;12.384;2024-03-07T06:34:19;50.55;;;25.17;;
14933;SDS011;7560;51.364;12.384;2024-03-07T06:39:21;50.78;;;25.17;;
14933;SDS011;7560;51.364;12.384;2024-03-07T06:44:23;51.83;;;24.27;;
14933;SDS011;7560;51.364;12.384;2024-03-07T06:49:26;50.40;;;24.48;;
14933;SDS011;7560;51.364;12.384;2024-03-07T06:54:29;49.78;;;24.20;;
14933;SDS011;7560;51.364;12.384;2024-03-07T06:59:31;49.67;;;24.42;;
14933;SDS011;7560;51.364;12.384;2024-03-07T07:04:33;49.58;;;23.90;;
14933;SDS011;7560;51.364;12.384;2024-03-07T07:09:43;43.47;;;22.23;;
14933;SDS011;7560;51.364;12.384;2024-03-07T07:14:45;44.50;;;22.17;;
14933;SDS011;7560;51.364;12.384;2024-03-07T07:19:46;40.85;;;22.20;;
14933;SDS011;7560;51.364;12.384;2024-03-07T07:24:48;41.50;;;20.15;;
14933;SDS011;7560;51.364;12.384;2024-03-07T07:29:50;36.63;;;19.75;;
14933;SDS011;7560;51.364;12.384;2024-03-07T07:34:52;35.72;;;18.52;;
14933;SDS011;7560;51.364;12.384;2024-03-07T07:39:54;35.28;;;17.83;;
14933;SDS011;7560;51.364;12.384;2024-03-07T07:44:56;31.52;;;16.73;;
14933;SDS011;7560;51.364;12.384;2024-03-07T07:49:58;29.42;;;15.65;;
14933;SDS011;7560;51.364;12.384;2024-03-07T07:55:00;26.75;;;14.13;;
14933;SDS011;7560;51.364;12.384;2024-03-07T08:00:01;27.60;;;15.10;;
14933;SDS011;7560;51.364;12.384;2024-03-07T08:05:04;26.17;;;14.63;;
14933;SDS011;7560;51.364;12.384;2024-03-07T08:10:10;24.88;;;13.75;;
14933;SDS011;7560;51.364;12.384;2024-03-07T08:15:12;20.23;;;11.98;;
14933;SDS011;7560;51.364;12.384;2024-03-07T08:20:16;24.45;;;12.48;;
14933;SDS011;7560;51.364;12.384;2024-03-07T08:25:25;21.58;;;12.00;;
14933;SDS011;7560;51.364;12.384;2024-03-07T08:30:28;23.17;;;13.10;;
14933;SDS011;7560;51.364;12.384;2024-03-07T08:35:31;22.02;;;12.13;;
14933;SDS011;7560;51.364;12.384;2024-03-07T08:40:32;20.40;;;11.55;;
14933;SDS011;7560;51.364;12.384;2024-03-07T08:45:35;21.38;;;11.55;;
14933;SDS011;7560;51.364;12.384;2024-03-07T08:50:37;19.17;;;10.73;;
14933;SDS011;7560;51.364;12.384;2024-03-07T08:55:41;18.60;;;10.13;;
14933;SDS011;7560;51.364;12.384;2024-03-07T09:00:43;17.77;;;9.88;;
14933;SDS011;7560;51.364;12.384;2024-03-07T09:05:46;18.55;;;10.10;;
14933;SDS011;7560;51.364;12.384;2024-03-07T09:10:48;16.38;;;10.02;;
14933;SDS011;7560;51.364;12.384;2024-03-07T09:15:50;17.05;;;9.02;;
14933;SDS011;7560;51.364;12.384;2024-03-07T09:20:52;17.85;;;9.38;;
14933;SDS011;7560;51.364;12.384;2024-03-07T09:25:54;16.45;;;9.80;;
14933;SDS011;7560;51.364;12.384;2024-03-07T09:30:56;17.65;;;9.68;;
14933;SDS011;7560;51.364;12.384;2024-03-07T09:35:58;17.10;;;9.57;;
14933;SDS011;7560;51.364;12.384;2024-03-07T09:41:00;16.33;;;9.05;;
14933;SDS011;7560;51.364;12.384;2024-03-07T09:46:02;13.48;;;8.18;;
14933;SDS011;7560;51.364;12.384;2024-03-07T09:51:06;14.23;;;8.50;;
14933;SDS011;7560;51.364;12.384;2024-03-07T09:56:10;15.93;;;8.55;;
14933;SDS011;7560;51.364;12.384;2024-03-07T10:01:15;12.95;;;7.93;;
14933;SDS011;7560;51.364;12.384;2024-03-07T10:06:21;18.35;;;9.98;;
14933;SDS011;7560;51.364;12.384;2024-03-07T10:11:22;17.48;;;9.95;;
14933;SDS011;7560;51.364;12.384;2024-03-07T10:16:25;17.63;;;9.68;;
14933;SDS011;7560;51.364;12.384;2024-03-07T10:21:27;17.92;;;10.48;;
14933;SDS011;7560;51.364;12.384;2024-03-07T10:26:29;16.52;;;9.95;;
14933;SDS011;7560;51.364;12.384;2024-03-07T10:31:36;15.85;;;10.38;;
14933;SDS011;7560;51.364;12.384;2024-03-07T10:36:49;18.50;;;10.93;;
14933;SDS011;7560;51.364;12.384;2024-03-07T10:41:52;13.68;;;8.70;;
14933;SDS011;7560;51.364;12.384;2024-03-07T10:46:59;15.40;;;9.27;;
14933;SDS011;7560;51.364;12.384;2024-03-07T10:52:13;16.23;;;9.90;;
14933;SDS011;7560;51.364;12.384;2024-03-07T11:02:48;16.20;;;10.65;;
14933;SDS011;7560;51.364;12.384;2024-03-07T11:07:56;17.88;;;10.15;;
14933;SDS011;7560;51.364;12.384;2024-03-07T11:13:07;15.25;;;9.25;;
14933;SDS011;7560;51.364;12.384;2024-03-07T11:18:13;15.55;;;10.13;;
14933;SDS011;7560;51.364;12.384;2024-03-07T11:23:24;16.10;;;9.93;;
14933;SDS011;7560;51.364;12.384;2024-03-07T11:28:35;13.88;;;9.68;;
14933;SDS011;7560;51.364;12.384;2024-03-07T11:33:41;15.98;;;10.57;;
14933;SDS011;7560;51.364;12.384;2024-03-07T11:38:48;17.23;;;10.73;;
14933;SDS011;7560;51.364;12.384;2024-03-07T11:43:52;15.82;;;11.18;;
14933;SDS011;7560;51.364;12.384;2024-03-07T11:48:56;18.05;;;11.50;;
14933;SDS011;7560;51.364;12.384;2024-03-07T11:54:02;16.48;;;10.90;;
14933;SDS011;7560;51.364;12.384;2024-03-07T11:59:03;19.25;;;12.18;;
14933;SDS011;7560;51.364;12.384;2024-03-07T12:04:08;21.83;;;12.63;;
14933;SDS011;7560;51.364;12.384;2024-03-07T12:09:14;18.85;;;12.55;;
14933;SDS011;7560;51.364;12.384;2024-03-07T12:14:24;18.35;;;11.70;;
14933;SDS011;7560;51.364;12.384;2024-03-07T12:19:26;17.10;;;11.85;;
14933;SDS011;7560;51.364;12.384;2024-03-07T12:24:28;19.80;;;12.60;;
14933;SDS011;7560;51.364;12.384;2024-03-07T12:29:31;20.40;;;13.02;;
14933;SDS011;7560;51.364;12.384;2024-03-07T12:34:34;21.60;;;12.77;;
14933;SDS011;7560;51.364;12.384;2024-03-07T12:39:39;16.30;;;10.75;;
14933;SDS011;7560;51.364;12.384;2024-03-07T12:44:47;20.23;;;11.63;;
14933;SDS011;7560;51.364;12.384;2024-03-07T12:49:51;16.23;;;10.88;;
14933;SDS011;7560;51.364;12.384;2024-03-07T12:54:53;16.55;;;11.35;;
14933;SDS011;7560;51.364;12.384;2024-03-07T12:59:56;15.63;;;10.82;;
14933;SDS011;7560;51.364;12.384;2024-03-07T13:04:58;17.90;;;11.35;;
14933;SDS011;7560;51.364;12.384;2024-03-07T13:10:00;20.90;;;12.85;;
14933;SDS011;7560;51.364;12.384;2024-03-07T13:15:02;17.90;;;11.90;;
14933;SDS011;7560;51.364;12.384;2024-03-07T13:20:11;22.05;;;14.10;;
14933;SDS011;7560;51.364;12.384;2024-03-07T13:25:15;18.88;;;11.98;;
14933;SDS011;7560;51.364;12.384;2024-03-07T13:30:19;16.90;;;11.45;;
14933;SDS011;7560;51.364;12.384;2024-03-07T13:35:28;16.95;;;11.98;;
14933;SDS011;7560;51.364;12.384;2024-03-07T13:40:30;18.25;;;12.00;;
14933;SDS011;7560;51.364;12.384;2024-03-07T13:45:33;17.90;;;11.25;;
14933;SDS011;7560;51.364;12.384;2024-03-07T13:50:44;16.70;;;10.85;;
14933;SDS011;7560;51.364;12.384;2024-03-07T14:06:38;18.75;;;12.63;;
14933;SDS011;7560;51.364;12.384;2024-03-07T14:33:18;20.10;;;12.75;;
14933;SDS011;7560;51.364;12.384;2024-03-07T14:38:22;18.70;;;12.25;;
14933;SDS011;7560;51.364;12.384;2024-03-07T14:43:44;20.23;;;12.27;;
14933;SDS011;7560;51.364;12.384;2024-03-07T14:48:46;20.85;;;11.98;;
14933;SDS011;7560;51.364;12.384;2024-03-07T14:53:48;24.15;;;13.00;;
14933;SDS011;7560;51.364;12.384;2024-03-07T14:58:50;18.67;;;12.43;;
14933;SDS011;7560;51.364;12.384;2024-03-07T15:03:52;18.50;;;13.02;;
14933;SDS011;7560;51.364;12.384;2024-03-07T15:08:56;18.30;;;12.43;;
14933;SDS011;7560;51.364;12.384;2024-03-07T15:13:58;20.83;;;12.90;;
14933;SDS011;7560;51.364;12.384;2024-03-07T15:19:01;16.48;;;11.68;;
14933;SDS011;7560;51.364;12.384;2024-03-07T15:24:03;18.92;;;12.15;;
14933;SDS011;7560;51.364;12.384;2024-03-07T15:29:05;17.65;;;11.73;;
14933;SDS011;7560;51.364;12.384;2024-03-07T15:34:08;18.27;;;11.85;;
14933;SDS011;7560;51.364;12.384;2024-03-07T15:39:09;20.77;;;11.50;;
14933;SDS011;7560;51.364;12.384;2024-03-07T15:44:21;18.65;;;11.75;;
14933;SDS011;7560;51.364;12.384;2024-03-07T15:49:23;16.88;;;11.55;;
14933;SDS011;7560;51.364;12.384;2024-03-07T15:54:26;18.52;;;11.95;;
14933;SDS011;7560;51.364;12.384;2024-03-07T15:59:30;20.73;;;11.35;;
14933;SDS011;7560;51.364;12.384;2024-03-07T16:04:35;17.60;;;11.63;;
14933;SDS011;7560;51.364;12.384;2024-03-07T16:09:37;18.92;;;11.93;;
14933;SDS011;7560;51.364;12.384;2024-03-07T16:14:39;17.33;;;12.13;;
14933;SDS011;7560;51.364;12.384;2024-03-07T16:19:40;19.50;;;11.55;;
14933;SDS011;7560;51.364;12.384;2024-03-07T16:24:43;18.77;;;11.88;;
14933;SDS011;7560;51.364;12.384;2024-03-07T16:29:45;18.60;;;11.32;;
14933;SDS011;7560;51.364;12.384;2024-03-07T16:34:50;18.63;;;12.40;;
14933;SDS011;7560;51.364;12.384;2024-03-07T16:39:52;15.70;;;11.05;;
14933;SDS011;7560;51.364;12.384;2024-03-07T16:44:53;18.90;;;11.30;;
14933;SDS011;7560;51.364;12.384;2024-03-07T16:49:55;18.60;;;11.43;;
14933;SDS011;7560;51.364;12.384;2024-03-07T16:54:57;19.15;;;11.68;;
14933;SDS011;7560;51.364;12.384;2024-03-07T17:00:00;22.83;;;13.20;;
14933;SDS011;7560;51.364;12.384;2024-03-07T17:05:07;18.50;;;12.25;;
14933;SDS011;7560;51.364;12.384;2024-03-07T17:10:19;21.45;;;12.32;;
14933;SDS011;7560;51.364;12.384;2024-03-07T17:15:22;20.80;;;12.35;;
14933;SDS011;7560;51.364;12.384;2024-03-07T17:20:24;21.85;;;12.30;;
14933;SDS011;7560;51.364;12.384;2024-03-07T17:25:26;20.02;;;12.32;;
14933;SDS011;7560;51.364;12.384;2024-03-07T17:30:31;20.63;;;12.27;;
14933;SDS011;7560;51.364;12.384;2024-03-07T17:35:34;19.05;;;12.93;;
14933;SDS011;7560;51.364;12.384;2024-03-07T17:40:41;22.73;;;11.82;;
14933;SDS011;7560;51.364;12.384;2024-03-07T17:45:44;18.48;;;12.00;;
14933;SDS011;7560;51.364;12.384;2024-03-07T17:50:46;18.85;;;11.98;;
14933;SDS011;7560;51.364;12.384;2024-03-07T17:55:48;23.63;;;13.32;;
14933;SDS011;7560;51.364;12.384;2024-03-07T18:00:51;20.85;;;13.02;;
14933;SDS011;7560;51.364;12.384;2024-03-07T18:05:54;22.15;;;13.13;;
14933;SDS011;7560;51.364;12.384;2024-03-07T18:10:56;22.45;;;13.50;;
14933;SDS011;7560;51.364;12.384;2024-03-07T18:16:01;22.52;;;13.48;;
14933;SDS011;7560;51.364;12.384;2024-03-07T18:21:03;23.52;;;12.90;;
14933;SDS011;7560;51.364;12.384;2024-03-07T18:26:05;21.05;;;12.73;;
14933;SDS011;7560;51.364;12.384;2024-03-07T18:31:12;19.55;;;12.98;;
14933;SDS011;7560;51.364;12.384;2024-03-07T18:36:16;22.08;;;12.90;;
14933;SDS011;7560;51.364;12.384;2024-03-07T18:41:20;24.55;;;13.32;;
14933;SDS011;7560;51.364;12.384;2024-03-07T18:46:22;22.13;;;12.63;;
14933;SDS011;7560;51.364;12.384;2024-03-07T18:51:23;20.55;;;13.07;;
14933;SDS011;7560;51.364;12.384;2024-03-07T18:56:25;22.45;;;14.30;;
14933;SDS011;7560;51.364;12.384;2024-03-07T19:01:27;23.08;;;13.55;;
14933;SDS011;7560;51.364;12.384;2024-03-07T19:06:36;23.25;;;13.48;;
14933;SDS011;7560;51.364;12.384;2024-03-07T19:11:42;23.48;;;14.32;;
14933;SDS011;7560;51.364;12.384;2024-03-07T19:16:46;22.75;;;14.52;;
14933;SDS011;7560;51.364;12.384;2024-03-07T19:21:53;24.55;;;14.70;;
14933;SDS011;7560;51.364;12.384;2024-03-07T19:26:54;24.40;;;13.45;;
14933;SDS011;7560;51.364;12.384;2024-03-07T19:31:57;24.25;;;14.23;;
14933;SDS011;7560;51.364;12.384;2024-03-07T19:36:59;25.38;;;14.73;;
14933;SDS011;7560;51.364;12.384;2024-03-07T19:42:00;26.40;;;14.70;;
14933;SDS011;7560;51.364;12.384;2024-03-07T19:47:10;27.75;;;15.13;;
14933;SDS011;7560;51.364;12.384;2024-03-07T19:52:14;22.35;;;14.43;;
14933;SDS011;7560;51.364;12.384;2024-03-07T19:57:16;25.75;;;14.95;;
14933;SDS011;7560;51.364;12.384;2024-03-07T20:02:20;26.00;;;15.02;;
14933;SDS011;7560;51.364;12.384;2024-03-07T20:07:22;24.45;;;14.50;;
14933;SDS011;7560;51.364;12.384;2024-03-07T20:12:25;25.90;;;14.60;;
14933;SDS011;7560;51.364;12.384;2024-03-07T20:17:27;30.00;;;16.17;;
14933;SDS011;7560;51.364;12.384;2024-03-07T20:22:29;26.08;;;15.35;;
14933;SDS011;7560;51.364;12.384;2024-03-07T20:27:31;26.38;;;15.63;;
14933;SDS011;7560;51.364;12.384;2024-03-07T20:32:36;31.73;;;16.75;;
14933;SDS011;7560;51.364;12.384;2024-03-07T20:37:39;28.77;;;16.58;;
14933;SDS011;7560;51.364;12.384;2024-03-07T20:42:41;31.73;;;16.85;;
14933;SDS011;7560;51.364;12.384;2024-03-07T20:47:46;27.17;;;14.90;;
14933;SDS011;7560;51.364;12.384;2024-03-07T20:52:52;26.85;;;16.10;;
14933;SDS011;7560;51.364;12.384;2024-03-07T20:57:55;30.05;;;16.45;;
14933;SDS011;7560;51.364;12.384;2024-03-07T21:03:02;29.55;;;16.50;;
14933;SDS011;7560;51.364;12.384;2024-03-07T21:08:08;29.48;;;16.30;;
14933;SDS011;7560;51.364;12.384;2024-03-07T21:13:11;29.25;;;15.68;;
14933;SDS011;7560;51.364;12.384;2024-03-07T21:18:14;29.05;;;16.55;;
14933;SDS011;7560;51.364;12.384;2024-03-07T21:23:20;30.13;;;16.02;;
14933;SDS011;7560;51.364;12.384;2024-03-07T21:28:24;31.73;;;16.73;;
14933;SDS011;7560;51.364;12.384;2024-03-07T21:33:26;35.85;;;18.45;;
14933;SDS011;7560;51.364;12.384;2024-03-07T21:38:29;32.67;;;17.58;;
14933;SDS011;7560;51.364;12.384;2024-03-07T21:43:31;30.25;;;15.93;;
14933;SDS011;7560;51.364;12.384;2024-03-07T21:48:34;30.77;;;17.38;;
14933;SDS011;7560;51.364;12.384;2024-03-07T21:53:36;30.80;;;17.45;;
14933;SDS011;7560;51.364;12.384;2024-03-07T21:58:45;31.63;;;18.02;;
14933;SDS011;7560;51.364;12.384;2024-03-07T22:03:47;30.80;;;17.40;;
14933;SDS011;7560;51.364;12.384;2024-03-07T22:08:50;26.85;;;16.60;;
14933;SDS011;7560;51.364;12.384;2024-03-07T22:13:53;31.48;;;17.23;;
14933;SDS011;7560;51.364;12.384;2024-03-07T22:18:55;30.88;;;16.67;;
14933;SDS011;7560;51.364;12.384;2024-03-07T22:23:57;34.15;;;18.30;;
14933;SDS011;7560;51.364;12.384;2024-03-07T22:28:59;32.88;;;17.80;;
14933;SDS011;7560;51.364;12.384;2024-03-07T22:34:01;35.17;;;18.15;;
14933;SDS011;7560;51.364;12.384;2024-03-07T22:39:06;38.35;;;17.65;;
14933;SDS011;7560;51.364;12.384;2024-03-07T22:44:10;35.03;;;18.45;;
14933;SDS011;7560;51.364;12.384;2024-03-07T22:49:12;33.50;;;17.77;;
14933;SDS011;7560;51.364;12.384;2024-03-07T22:54:14;33.83;;;18.10;;
14933;SDS011;7560;51.364;12.384;2024-03-07T22:59:15;32.17;;;17.60;;
14933;SDS011;7560;51.364;12.384;2024-03-07T23:04:18;33.08;;;17.42;;
14933;SDS011;7560;51.364;12.384;2024-03-07T23:09:19;31.70;;;17.83;;
14933;SDS011;7560;51.364;12.384;2024-03-07T23:14:23;32.35;;;18.02;;
14933;SDS011;7560;51.364;12.384;2024-03-07T23:19:25;32.60;;;17.50;;
14933;SDS011;7560;51.364;12.384;2024-03-07T23:24:26;32.85;;;18.17;;
14933;SDS011;7560;51.364;12.384;2024-03-07T23:29:28;32.45;;;17.40;;
14933;SDS011;7560;51.364;12.384;2024-03-07T23:34:30;33.50;;;17.45;;
14933;SDS011;7560;51.364;12.384;2024-03-07T23:39:32;32.80;;;17.95;;
14933;SDS011;7560;51.364;12.384;2024-03-07T23:44:34;34.72;;;19.00;;
14933;SDS011;7560;51.364;12.384;2024-03-07T23:49:35;30.88;;;16.90;;
14933;SDS011;7560;51.364;12.384;2024-03-07T23:54:37;29.52;;;16.38;;
14933;SDS011;7560;51.364;12.384;2024-03-07T23:59:39;34.50;;;18.63;;
